sensor_id;sensor_type;location;lat;lon;timestamp;P1;durP1;ratioP1;P2;durP2;ratioP2
42670;SDS011;28283;55.426;37.756;2024-01-15T00:04:58;15.40;;;8.45;;
42670;SDS011;28283;55.426;37.756;2024-01-15T00:09:58;12.98;;;7.35;;
42670;SDS011;28283;55.426;37.756;2024-01-15T00:14:59;13.88;;;8.23;;
42670;SDS011;28283;55.426;37.756;2024-01-15T00:20:00;11.82;;;6.18;;
42670;SDS011;28283;55.426;37.756;2024-01-15T00:25:01;9.65;;;5.97;;
42670;SDS011;28283;55.426;37.756;2024-01-15T00:30:02;12.82;;;7.93;;
42670;SDS011;28283;55.426;37.756;2024-01-15T00:35:04;11.13;;;6.25;;
42670;SDS011;28283;55.426;37.756;2024-01-15T00:40:06;11.00;;;6.97;;
42670;SDS011;28283;55.426;37.756;2024-01-15T00:45:08;8.07;;;6.68;;
42670;SDS011;28283;55.426;37.756;2024-01-15T00:50:09;17.52;;;8.07;;
42670;SDS011;28283;55.426;37.756;2024-01-15T00:55:11;14.88;;;8.98;;
42670;SDS011;28283;55.426;37.756;2024-01-15T01:00:12;12.60;;;6.72;;
42670;SDS011;28283;55.426;37.756;2024-01-15T01:05:14;13.23;;;8.65;;
42670;SDS011;28283;55.426;37.756;2024-01-15T01:10:15;11.20;;;7.93;;
42670;SDS011;28283;55.426;37.756;2024-01-15T01:15:16;14.13;;;9.07;;
42670;SDS011;28283;55.426;37.756;2024-01-15T01:20:17;15.80;;;9.35;;
42670;SDS011;28283;55.426;37.756;2024-01-15T01:25:18;11.40;;;7.43;;
42670;SDS011;28283;55.426;37.756;2024-01-15T01:30:18;13.52;;;9.25;;
42670;SDS011;28283;55.426;37.756;2024-01-15T01:35:19;19.38;;;10.07;;
42670;SDS011;28283;55.426;37.756;2024-01-15T01:40:19;16.23;;;8.85;;
42670;SDS011;28283;55.426;37.756;2024-01-15T01:45:20;12.38;;;8.20;;
42670;SDS011;28283;55.426;37.756;2024-01-15T01:50:21;12.55;;;7.85;;
42670;SDS011;28283;55.426;37.756;2024-01-15T01:55:21;10.73;;;7.68;;
42670;SDS011;28283;55.426;37.756;2024-01-15T02:00:26;11.15;;;8.23;;
42670;SDS011;28283;55.426;37.756;2024-01-15T02:05:27;15.30;;;9.95;;
42670;SDS011;28283;55.426;37.756;2024-01-15T02:10:29;16.05;;;9.90;;
42670;SDS011;28283;55.426;37.756;2024-01-15T02:15:29;15.50;;;9.43;;
42670;SDS011;28283;55.426;37.756;2024-01-15T02:20:30;18.35;;;11.00;;
42670;SDS011;28283;55.426;37.756;2024-01-15T02:25:32;17.20;;;10.40;;
42670;SDS011;28283;55.426;37.756;2024-01-15T02:30:32;9.20;;;6.22;;
42670;SDS011;28283;55.426;37.756;2024-01-15T02:35:39;17.73;;;10.30;;
42670;SDS011;28283;55.426;37.756;2024-01-15T02:40:40;17.38;;;8.70;;
42670;SDS011;28283;55.426;37.756;2024-01-15T02:45:41;11.15;;;7.55;;
42670;SDS011;28283;55.426;37.756;2024-01-15T02:50:41;16.05;;;10.20;;
42670;SDS011;28283;55.426;37.756;2024-01-15T02:55:42;10.48;;;6.10;;
42670;SDS011;28283;55.426;37.756;2024-01-15T03:00:43;13.98;;;9.10;;
42670;SDS011;28283;55.426;37.756;2024-01-15T03:05:44;19.95;;;10.25;;
42670;SDS011;28283;55.426;37.756;2024-01-15T03:10:46;16.10;;;9.85;;
42670;SDS011;28283;55.426;37.756;2024-01-15T03:15:47;14.70;;;9.90;;
42670;SDS011;28283;55.426;37.756;2024-01-15T03:20:48;13.32;;;8.60;;
42670;SDS011;28283;55.426;37.756;2024-01-15T03:25:49;18.65;;;9.82;;
42670;SDS011;28283;55.426;37.756;2024-01-15T03:30:49;15.02;;;10.07;;
42670;SDS011;28283;55.426;37.756;2024-01-15T03:35:50;23.00;;;12.80;;
42670;SDS011;28283;55.426;37.756;2024-01-15T03:40:51;18.88;;;11.10;;
42670;SDS011;28283;55.426;37.756;2024-01-15T03:45:51;15.55;;;10.13;;
42670;SDS011;28283;55.426;37.756;2024-01-15T03:50:52;12.88;;;7.13;;
42670;SDS011;28283;55.426;37.756;2024-01-15T03:55:52;21.80;;;12.20;;
42670;SDS011;28283;55.426;37.756;2024-01-15T04:00:53;17.92;;;11.65;;
42670;SDS011;28283;55.426;37.756;2024-01-15T04:05:53;9.65;;;6.07;;
42670;SDS011;28283;55.426;37.756;2024-01-15T04:10:54;12.38;;;6.63;;
42670;SDS011;28283;55.426;37.756;2024-01-15T04:15:55;12.38;;;7.32;;
42670;SDS011;28283;55.426;37.756;2024-01-15T04:20:56;20.27;;;11.85;;
42670;SDS011;28283;55.426;37.756;2024-01-15T04:25:57;11.25;;;7.80;;
42670;SDS011;28283;55.426;37.756;2024-01-15T04:30:57;16.88;;;11.57;;
42670;SDS011;28283;55.426;37.756;2024-01-15T04:36:01;20.17;;;12.57;;
42670;SDS011;28283;55.426;37.756;2024-01-15T04:41:02;17.23;;;11.52;;
42670;SDS011;28283;55.426;37.756;2024-01-15T04:46:05;19.77;;;12.38;;
42670;SDS011;28283;55.426;37.756;2024-01-15T04:51:08;16.98;;;11.27;;
42670;SDS011;28283;55.426;37.756;2024-01-15T04:56:09;22.38;;;13.77;;
42670;SDS011;28283;55.426;37.756;2024-01-15T05:01:09;17.10;;;10.38;;
42670;SDS011;28283;55.426;37.756;2024-01-15T05:06:10;15.65;;;10.82;;
42670;SDS011;28283;55.426;37.756;2024-01-15T05:11:10;14.70;;;9.13;;
42670;SDS011;28283;55.426;37.756;2024-01-15T05:16:11;14.30;;;10.38;;
42670;SDS011;28283;55.426;37.756;2024-01-15T05:21:12;19.25;;;11.38;;
42670;SDS011;28283;55.426;37.756;2024-01-15T05:26:12;21.63;;;14.65;;
42670;SDS011;28283;55.426;37.756;2024-01-15T05:31:13;16.27;;;10.35;;
42670;SDS011;28283;55.426;37.756;2024-01-15T05:36:14;10.38;;;7.38;;
42670;SDS011;28283;55.426;37.756;2024-01-15T05:41:14;21.70;;;12.02;;
42670;SDS011;28283;55.426;37.756;2024-01-15T05:46:15;20.80;;;11.55;;
42670;SDS011;28283;55.426;37.756;2024-01-15T05:51:16;21.85;;;13.77;;
42670;SDS011;28283;55.426;37.756;2024-01-15T05:56:17;15.55;;;10.90;;
42670;SDS011;28283;55.426;37.756;2024-01-15T06:01:17;17.02;;;11.27;;
42670;SDS011;28283;55.426;37.756;2024-01-15T06:06:18;21.88;;;13.98;;
42670;SDS011;28283;55.426;37.756;2024-01-15T06:11:18;21.08;;;12.55;;
42670;SDS011;28283;55.426;37.756;2024-01-15T06:16:19;17.67;;;12.02;;
42670;SDS011;28283;55.426;37.756;2024-01-15T06:21:20;14.15;;;10.45;;
42670;SDS011;28283;55.426;37.756;2024-01-15T06:26:21;18.52;;;10.68;;
42670;SDS011;28283;55.426;37.756;2024-01-15T06:31:21;22.92;;;11.93;;
42670;SDS011;28283;55.426;37.756;2024-01-15T06:36:22;20.48;;;13.88;;
42670;SDS011;28283;55.426;37.756;2024-01-15T06:41:23;21.85;;;13.50;;
42670;SDS011;28283;55.426;37.756;2024-01-15T06:46:25;20.52;;;12.80;;
42670;SDS011;28283;55.426;37.756;2024-01-15T06:51:26;23.33;;;14.05;;
42670;SDS011;28283;55.426;37.756;2024-01-15T06:56:26;22.67;;;14.93;;
42670;SDS011;28283;55.426;37.756;2024-01-15T07:01:27;17.77;;;12.13;;
42670;SDS011;28283;55.426;37.756;2024-01-15T07:06:27;18.10;;;11.77;;
42670;SDS011;28283;55.426;37.756;2024-01-15T07:11:28;16.17;;;11.30;;
42670;SDS011;28283;55.426;37.756;2024-01-15T07:16:29;17.15;;;10.98;;
42670;SDS011;28283;55.426;37.756;2024-01-15T07:21:29;22.40;;;13.90;;
42670;SDS011;28283;55.426;37.756;2024-01-15T07:26:30;17.20;;;12.07;;
42670;SDS011;28283;55.426;37.756;2024-01-15T07:36:32;19.73;;;13.68;;
42670;SDS011;28283;55.426;37.756;2024-01-15T07:41:33;21.58;;;13.32;;
42670;SDS011;28283;55.426;37.756;2024-01-15T07:46:34;17.00;;;10.40;;
42670;SDS011;28283;55.426;37.756;2024-01-15T07:51:35;19.23;;;12.65;;
42670;SDS011;28283;55.426;37.756;2024-01-15T08:01:59;16.13;;;9.90;;
42670;SDS011;28283;55.426;37.756;2024-01-15T08:07:00;19.88;;;13.77;;
42670;SDS011;28283;55.426;37.756;2024-01-15T08:12:01;15.60;;;9.95;;
42670;SDS011;28283;55.426;37.756;2024-01-15T08:17:01;19.25;;;13.18;;
42670;SDS011;28283;55.426;37.756;2024-01-15T08:22:02;17.63;;;11.38;;
42670;SDS011;28283;55.426;37.756;2024-01-15T08:27:03;16.23;;;10.52;;
42670;SDS011;28283;55.426;37.756;2024-01-15T08:32:05;14.13;;;10.10;;
42670;SDS011;28283;55.426;37.756;2024-01-15T08:37:05;18.25;;;12.25;;
42670;SDS011;28283;55.426;37.756;2024-01-15T08:42:06;17.83;;;12.00;;
42670;SDS011;28283;55.426;37.756;2024-01-15T08:47:07;15.23;;;10.82;;
42670;SDS011;28283;55.426;37.756;2024-01-15T08:57:08;16.80;;;10.03;;
42670;SDS011;28283;55.426;37.756;2024-01-15T09:07:09;17.10;;;11.93;;
42670;SDS011;28283;55.426;37.756;2024-01-15T09:17:10;20.05;;;11.25;;
42670;SDS011;28283;55.426;37.756;2024-01-15T09:27:13;14.18;;;9.50;;
42670;SDS011;28283;55.426;37.756;2024-01-15T09:37:14;15.38;;;10.52;;
42670;SDS011;28283;55.426;37.756;2024-01-15T09:42:15;15.48;;;10.43;;
42670;SDS011;28283;55.426;37.756;2024-01-15T09:47:16;16.15;;;11.52;;
42670;SDS011;28283;55.426;37.756;2024-01-15T09:52:18;15.40;;;10.40;;
42670;SDS011;28283;55.426;37.756;2024-01-15T09:57:19;13.52;;;8.75;;
42670;SDS011;28283;55.426;37.756;2024-01-15T10:07:20;14.30;;;10.05;;
42670;SDS011;28283;55.426;37.756;2024-01-15T10:12:22;11.15;;;8.95;;
42670;SDS011;28283;55.426;37.756;2024-01-15T10:17:24;18.13;;;8.70;;
42670;SDS011;28283;55.426;37.756;2024-01-15T10:22:28;12.85;;;8.75;;
42670;SDS011;28283;55.426;37.756;2024-01-15T10:32:29;16.02;;;10.60;;
42670;SDS011;28283;55.426;37.756;2024-01-15T10:42:33;17.23;;;10.18;;
42670;SDS011;28283;55.426;37.756;2024-01-15T10:52:37;17.83;;;10.57;;
42670;SDS011;28283;55.426;37.756;2024-01-15T10:57:43;15.55;;;8.68;;
42670;SDS011;28283;55.426;37.756;2024-01-15T11:02:45;15.80;;;10.27;;
42670;SDS011;28283;55.426;37.756;2024-01-15T11:12:47;14.40;;;10.00;;
42670;SDS011;28283;55.426;37.756;2024-01-15T11:18:00;14.98;;;10.82;;
42670;SDS011;28283;55.426;37.756;2024-01-15T11:23:06;15.57;;;11.02;;
42670;SDS011;28283;55.426;37.756;2024-01-15T11:28:13;16.60;;;11.27;;
42670;SDS011;28283;55.426;37.756;2024-01-15T11:33:49;16.33;;;11.45;;
42670;SDS011;28283;55.426;37.756;2024-01-15T11:38:50;14.60;;;10.50;;
42670;SDS011;28283;55.426;37.756;2024-01-15T11:48:52;17.85;;;11.65;;
42670;SDS011;28283;55.426;37.756;2024-01-15T11:54:03;12.27;;;9.23;;
42670;SDS011;28283;55.426;37.756;2024-01-15T11:59:09;12.18;;;8.13;;
42670;SDS011;28283;55.426;37.756;2024-01-15T12:09:33;16.13;;;10.10;;
42670;SDS011;28283;55.426;37.756;2024-01-15T12:14:34;15.40;;;9.80;;
42670;SDS011;28283;55.426;37.756;2024-01-15T12:24:36;17.40;;;10.35;;
42670;SDS011;28283;55.426;37.756;2024-01-15T12:34:38;15.15;;;11.05;;
42670;SDS011;28283;55.426;37.756;2024-01-15T12:44:45;16.35;;;11.55;;
42670;SDS011;28283;55.426;37.756;2024-01-15T12:49:47;16.83;;;11.65;;
42670;SDS011;28283;55.426;37.756;2024-01-15T12:54:56;19.55;;;12.18;;
42670;SDS011;28283;55.426;37.756;2024-01-15T12:59:57;16.88;;;11.70;;
42670;SDS011;28283;55.426;37.756;2024-01-15T13:04:58;16.55;;;11.25;;
42670;SDS011;28283;55.426;37.756;2024-01-15T13:09:59;15.20;;;10.40;;
42670;SDS011;28283;55.426;37.756;2024-01-15T13:20:03;14.65;;;9.43;;
42670;SDS011;28283;55.426;37.756;2024-01-15T13:25:05;16.85;;;10.15;;
42670;SDS011;28283;55.426;37.756;2024-01-15T13:30:07;18.10;;;12.07;;
42670;SDS011;28283;55.426;37.756;2024-01-15T13:35:09;18.95;;;12.07;;
42670;SDS011;28283;55.426;37.756;2024-01-15T13:40:13;12.32;;;9.60;;
42670;SDS011;28283;55.426;37.756;2024-01-15T13:45:16;14.15;;;9.07;;
42670;SDS011;28283;55.426;37.756;2024-01-15T13:50:20;17.95;;;11.52;;
42670;SDS011;28283;55.426;37.756;2024-01-15T14:00:21;14.57;;;10.55;;
42670;SDS011;28283;55.426;37.756;2024-01-15T14:05:23;17.63;;;12.27;;
42670;SDS011;28283;55.426;37.756;2024-01-15T14:15:24;18.00;;;12.98;;
42670;SDS011;28283;55.426;37.756;2024-01-15T14:25:25;15.23;;;11.20;;
42670;SDS011;28283;55.426;37.756;2024-01-15T14:35:27;16.75;;;11.20;;
42670;SDS011;28283;55.426;37.756;2024-01-15T14:45:28;19.73;;;12.90;;
42670;SDS011;28283;55.426;37.756;2024-01-15T14:50:30;14.98;;;11.30;;
42670;SDS011;28283;55.426;37.756;2024-01-15T14:55:31;18.58;;;12.73;;
42670;SDS011;28283;55.426;37.756;2024-01-15T15:05:32;19.90;;;11.55;;
42670;SDS011;28283;55.426;37.756;2024-01-15T15:15:33;19.70;;;12.47;;
42670;SDS011;28283;55.426;37.756;2024-01-15T15:20:34;15.68;;;10.98;;
42670;SDS011;28283;55.426;37.756;2024-01-15T15:30:35;18.13;;;11.77;;
42670;SDS011;28283;55.426;37.756;2024-01-15T15:35:36;17.83;;;12.00;;
42670;SDS011;28283;55.426;37.756;2024-01-15T15:45:40;17.02;;;11.35;;
42670;SDS011;28283;55.426;37.756;2024-01-15T15:50:49;22.57;;;13.30;;
42670;SDS011;28283;55.426;37.756;2024-01-15T15:56:02;18.92;;;13.68;;
42670;SDS011;28283;55.426;37.756;2024-01-15T16:01:04;19.05;;;14.45;;
42670;SDS011;28283;55.426;37.756;2024-01-15T16:11:05;20.85;;;13.13;;
42670;SDS011;28283;55.426;37.756;2024-01-15T16:16:07;18.67;;;13.73;;
42670;SDS011;28283;55.426;37.756;2024-01-15T16:26:09;21.10;;;12.48;;
42670;SDS011;28283;55.426;37.756;2024-01-15T16:36:10;18.67;;;13.40;;
42670;SDS011;28283;55.426;37.756;2024-01-15T16:46:13;16.55;;;12.30;;
42670;SDS011;28283;55.426;37.756;2024-01-15T16:51:23;19.38;;;13.65;;
42670;SDS011;28283;55.426;37.756;2024-01-15T17:01:24;18.52;;;13.15;;
42670;SDS011;28283;55.426;37.756;2024-01-15T17:06:26;22.77;;;14.88;;
42670;SDS011;28283;55.426;37.756;2024-01-15T17:11:30;23.05;;;15.32;;
42670;SDS011;28283;55.426;37.756;2024-01-15T17:16:32;24.98;;;15.73;;
42670;SDS011;28283;55.426;37.756;2024-01-15T17:21:33;19.83;;;14.15;;
42670;SDS011;28283;55.426;37.756;2024-01-15T17:31:38;18.05;;;11.98;;
42670;SDS011;28283;55.426;37.756;2024-01-15T17:41:39;25.38;;;16.45;;
42670;SDS011;28283;55.426;37.756;2024-01-15T17:51:48;19.38;;;12.52;;
42670;SDS011;28283;55.426;37.756;2024-01-15T17:56:49;23.75;;;16.42;;
42670;SDS011;28283;55.426;37.756;2024-01-15T18:06:51;25.88;;;17.02;;
42670;SDS011;28283;55.426;37.756;2024-01-15T18:11:53;23.10;;;15.15;;
42670;SDS011;28283;55.426;37.756;2024-01-15T18:16:59;22.52;;;14.98;;
42670;SDS011;28283;55.426;37.756;2024-01-15T18:22:03;23.55;;;14.70;;
42670;SDS011;28283;55.426;37.756;2024-01-15T18:27:05;26.52;;;13.48;;
42670;SDS011;28283;55.426;37.756;2024-01-15T18:37:06;19.27;;;13.38;;
42670;SDS011;28283;55.426;37.756;2024-01-15T18:42:07;19.48;;;12.85;;
42670;SDS011;28283;55.426;37.756;2024-01-15T18:57:18;20.06;;;14.16;;
42670;SDS011;28283;55.426;37.756;2024-01-15T19:02:27;20.86;;;13.90;;
42670;SDS011;28283;55.426;37.756;2024-01-15T19:12:36;19.13;;;13.26;;
42670;SDS011;28283;55.426;37.756;2024-01-15T19:17:38;22.08;;;13.63;;
42670;SDS011;28283;55.426;37.756;2024-01-15T19:22:45;22.48;;;14.10;;
42670;SDS011;28283;55.426;37.756;2024-01-15T19:27:48;21.38;;;15.38;;
42670;SDS011;28283;55.426;37.756;2024-01-15T19:32:59;25.17;;;15.69;;
42670;SDS011;28283;55.426;37.756;2024-01-15T19:38:00;19.55;;;14.27;;
42670;SDS011;28283;55.426;37.756;2024-01-15T19:43:04;19.71;;;12.80;;
42670;SDS011;28283;55.426;37.756;2024-01-15T19:48:07;23.50;;;15.80;;
42670;SDS011;28283;55.426;37.756;2024-01-15T19:53:13;24.25;;;14.77;;
42670;SDS011;28283;55.426;37.756;2024-01-15T19:58:21;21.41;;;13.96;;
42670;SDS011;28283;55.426;37.756;2024-01-15T20:03:32;20.09;;;13.73;;
42670;SDS011;28283;55.426;37.756;2024-01-15T20:08:33;21.21;;;13.43;;
42670;SDS011;28283;55.426;37.756;2024-01-15T20:13:52;22.42;;;14.84;;
42670;SDS011;28283;55.426;37.756;2024-01-15T20:23:53;24.44;;;14.74;;
42670;SDS011;28283;55.426;37.756;2024-01-15T20:28:55;23.25;;;13.90;;
42670;SDS011;28283;55.426;37.756;2024-01-15T20:34:00;20.33;;;13.07;;
42670;SDS011;28283;55.426;37.756;2024-01-15T20:39:01;24.14;;;15.52;;
42670;SDS011;28283;55.426;37.756;2024-01-15T20:44:05;14.02;;;10.57;;
42670;SDS011;28283;55.426;37.756;2024-01-15T20:54:06;19.50;;;12.82;;
42670;SDS011;28283;55.426;37.756;2024-01-15T20:59:10;14.93;;;9.05;;
42670;SDS011;28283;55.426;37.756;2024-01-15T21:09:18;23.07;;;14.93;;
42670;SDS011;28283;55.426;37.756;2024-01-15T21:14:22;24.68;;;15.63;;
42670;SDS011;28283;55.426;37.756;2024-01-15T21:19:25;22.13;;;14.37;;
42670;SDS011;28283;55.426;37.756;2024-01-15T21:24:26;21.46;;;14.56;;
42670;SDS011;28283;55.426;37.756;2024-01-15T21:29:27;25.55;;;15.80;;
42670;SDS011;28283;55.426;37.756;2024-01-15T21:34:28;19.70;;;12.68;;
42670;SDS011;28283;55.426;37.756;2024-01-15T21:39:39;21.27;;;14.00;;
42670;SDS011;28283;55.426;37.756;2024-01-15T21:44:43;18.83;;;14.00;;
42670;SDS011;28283;55.426;37.756;2024-01-15T21:49:45;15.85;;;11.93;;
42670;SDS011;28283;55.426;37.756;2024-01-15T21:54:46;18.47;;;10.13;;
42670;SDS011;28283;55.426;37.756;2024-01-15T21:59:47;18.80;;;13.60;;
42670;SDS011;28283;55.426;37.756;2024-01-15T22:04:47;16.23;;;11.27;;
42670;SDS011;28283;55.426;37.756;2024-01-15T22:09:48;19.35;;;11.38;;
42670;SDS011;28283;55.426;37.756;2024-01-15T22:14:48;18.63;;;12.23;;
42670;SDS011;28283;55.426;37.756;2024-01-15T22:19:49;15.05;;;10.32;;
42670;SDS011;28283;55.426;37.756;2024-01-15T22:24:50;19.33;;;13.18;;
42670;SDS011;28283;55.426;37.756;2024-01-15T22:29:51;19.48;;;11.57;;
42670;SDS011;28283;55.426;37.756;2024-01-15T22:34:53;16.73;;;12.00;;
42670;SDS011;28283;55.426;37.756;2024-01-15T22:39:54;18.15;;;11.57;;
42670;SDS011;28283;55.426;37.756;2024-01-15T22:44:54;16.38;;;11.48;;
42670;SDS011;28283;55.426;37.756;2024-01-15T22:54:56;12.00;;;8.18;;
42670;SDS011;28283;55.426;37.756;2024-01-15T23:04:57;16.17;;;9.90;;
42670;SDS011;28283;55.426;37.756;2024-01-15T23:14:58;13.80;;;8.48;;
42670;SDS011;28283;55.426;37.756;2024-01-15T23:19:59;12.18;;;8.50;;
42670;SDS011;28283;55.426;37.756;2024-01-15T23:25:00;10.23;;;7.50;;
42670;SDS011;28283;55.426;37.756;2024-01-15T23:30:01;11.98;;;7.07;;
42670;SDS011;28283;55.426;37.756;2024-01-15T23:35:04;11.10;;;7.50;;
42670;SDS011;28283;55.426;37.756;2024-01-15T23:45:06;15.27;;;10.80;;
42670;SDS011;28283;55.426;37.756;2024-01-15T23:55:07;15.60;;;10.00;;
